Terminal Aerodrome Forecast
Issued by NWS Atlanta, GA

Home | Current Version | Previous Version | Text Only | Print | Product List | Glossary On
Versions: 1 2 3 4 5 6 7 8 9 10 11 12 13 14 15 16 17 18 19 20 21 22 23 24 25 26 27 28 29 30 31 32 33 34 35 36
000
FTUS42 KFFC 221940 AAA
TAFATL
TAF AMD
KATL 221940Z 2220/2324 25006KT P6SM VCSH SCT060
     FM230100 24004KT P6SM SCT150
     FM231000 27004KT P6SM FEW035
     FM231500 30007KT P6SM VCSH BKN045 PROB30 2317/2321 3SM TSRA
      BKN035CB=

USA.gov is the U.S. government's official web portal to all federal, state and local government web resources and services.